Pagrindinis puslapis
METAR-TAF:

METAR-TAF

Oro uostai :

Ankoridžas-Elmendorf, Aliaska, Jungtinės Amerikos Valstijos

platuma: 61-15-11N, ilguma: 149-47-38W, Aukštis: 65 m

Dabartinis oras

Ataskaita buvo paskelbta 38 minutes, ne 03:56 UTC
Ramus vėjas
Temperatūra -11°C
Drėgmė 66%
Slėgis 1016 hPa
Matomumas: 16.1 km
Giedras dangus

METAR: PAED 290356Z AUTO 00000KT 10SM CLR M11/M16 A3001 RMK AO2 SLPNO T11131164 $

Laikas: 19:34 (04:34 UTC)

Prognozė

Ataskaita buvo paskelbta 1 valandą ir 34 minutes, ne 03:00 UTC
Prognozė galioja nuo 29 metu 03 UTC su 01 metu 09 UTC
Vėjas 6 kt nuo kintamojo kryptimis
Matomumas 10 km arba daugiau
Giedras dangus
Tapsmas
nuo 01 metu 02 UTC su 01 metu 03 UTC
Vėjas 9 kt iš Šiaurės/Šiaurės Rytų
Matomumas: 6000 m
Išsisklaidę debesys ne aukštis 2000 ft
Su prošvaistėmis ne aukštis 4000 ft
sniegas

TAF: PAED 290300Z 2903/0109 VRB06KT 9999 SKC QNH2996INS BECMG 0102/0103 02009KT 6000 -SN SCT020 BKN040 620404 580304 QNH2950INS TXM06/2906Z TNM22/2914Z

Orai ataskaitas ir orų prognozės (METAR, TAF).

turimą stotys yra geltonos ir raudonos taškus žemėlapyje.

Perkelti pele per norėdami pamatyti stoties vardą.

Tada spustelėkite, norėdami matyti oro stebėjimo ir prognozės.

Norėdami pakeisti žemėlapį: spustelėkite ant žalios mygtukų su juodo kryžiaus žemyn,; žalią mygtuką su brūkšneliu, jei norite nutolinti; arba žalių rodyklių gretimoms žemėlapius.


METAR-TAF: